This is the latest recevied weather packets stored in our database for station/object DM4XI-13. If no packets are shown the sender has not sent any weather packets the latest 10 day(s).
| Time | Temp. | Humidity | Pressure | Rain* | Wind** | Luminosity | Snow |
|---|---|---|---|---|---|---|---|
| 1778132897 | 10° C | 88% | 1009 hPa | 0 mm | 0.45 m/s, 190° | 83 W/m² | - |
| 1778132836 | 10° C | 88% | 1008.8 hPa | 0 mm | 0.89 m/s, 198° | 92 W/m² | - |
| 1778132775 | 10° C | 88% | 1008.9 hPa | 0 mm | 0.89 m/s, 203° | 86 W/m² | - |
| 1778132713 | 10° C | 88% | 1009.1 hPa | 0 mm | 0.89 m/s, 165° | 72 W/m² | - |
| 1778132652 | 10° C | 88% | 1009 hPa | 0 mm | 1.79 m/s, 201° | 67 W/m² | - |
| 1778132591 | 10° C | 89% | 1009 hPa | 0 mm | 0.45 m/s, 174° | 60 W/m² | - |
| 1778132530 | 10° C | 88% | 1009 hPa | 0 mm | 0 m/s | 51 W/m² | - |
| 1778132469 | 10° C | 88% | 1009 hPa | 0 mm | 0.89 m/s, 167° | 42 W/m² | - |
| 1778132409 | 10° C | 88% | 1009 hPa | 0 mm | 0.45 m/s, 202° | 41 W/m² | - |
| 1778132348 | 10° C | 88% | 1009 hPa | 0 mm | 2.68 m/s, 184° | 41 W/m² | - |
| 1778132286 | 10° C | 88% | 1008.8 hPa | 0 mm | 0.89 m/s, 194° | 34 W/m² | - |
| 1778132225 | 10° C | 88% | 1009 hPa | 0 mm | 0.89 m/s, 193° | 29 W/m² | - |
| 1778132164 | 10° C | 89% | 1008.9 hPa | 0 mm | 0 m/s | 30 W/m² | - |
| 1778132103 | 10° C | 88% | 1008.9 hPa | 0 mm | 0.45 m/s, 213° | 34 W/m² | - |
| 1778132042 | 10° C | 88% | 1009 hPa | 0 mm | 0.89 m/s, 170° | 42 W/m² | - |
| 1778131982 | 10° C | 88% | 1008.8 hPa | 0 mm | 0.89 m/s, 189° | 43 W/m² | - |
| 1778131920 | 10° C | 89% | 1008.9 hPa | 0 mm | 0.45 m/s, 184° | 39 W/m² | - |
| 1778131860 | 10° C | 89% | 1008.8 hPa | 0 mm | 0.89 m/s, 177° | 38 W/m² | - |
| 1778131798 | 10° C | 89% | 1008.9 hPa | 0 mm | 0.45 m/s, 156° | 38 W/m² | - |
| 1778131737 | 10° C | 89% | 1008.7 hPa | 0 mm | 0.45 m/s, 191° | 39 W/m² | - |
| 1778131676 | 10° C | 89% | 1008.7 hPa | 0 mm | 0.45 m/s, 219° | 43 W/m² | - |
| 1778131616 | 10° C | 90% | 1008.8 hPa | 0 mm | 0 m/s | 47 W/m² | - |
| 1778131555 | 10° C | 90% | 1008.7 hPa | 0 mm | 0 m/s | 48 W/m² | - |
| 1778131493 | 10° C | 90% | 1008.7 hPa | 0 mm | 0.89 m/s, 173° | 51 W/m² | - |
| 1778131432 | 10° C | 90% | 1008.7 hPa | 0 mm | 0.89 m/s, 164° | 56 W/m² | - |
* Rain latest hour (hover to see other rain measurements)
** Current wind speed in m/s (hover to see current wind gust speed)